LIBN/LCC METAR and TAF weather

Enter ICAO airport designator
Station Type Date Time Source
LIBN METAR 2021/07/29 16:55 UTC NOAA

LIBN 291655Z 04006KT CAVOK 36/15 Q1012 RMK SKC VIS MIN 9999 WIND THR14 05006KT WIND THR32 06007KT BLU


Station Type Date Time Source
LIBN Decoded METAR 2021/07/29 16:55 UTC NOAA

Lecce, Italy (LIBN) 40-14N 018-09E 61M
Jul 29, 2021 - 12:55 PM EDT / 2021.07.29 1655 UTC
Wind: from the NE (040 degrees) at 7 MPH (6 KT):0
Visibility: greater than 7 mile(s):0
Temperature: 96 F (36 C)
Heat index: 95.0 F (35.0 C):1
Dew Point: 59 F (15 C)
Relative Humidity: 28%
Pressure (altimeter): 29.88 in. Hg (1012 hPa)
ob: LIBN 291655Z 04006KT CAVOK 36/15 Q1012 RMK SKC VIS MIN 9999 WIND THR14 05006KT WIND THR32 06007KT BLU
cycle: 17

Station Type Date Time Source
LIBN TAF 2021/06/28 12:51 UTC NOAA

TAF TAF LIBN 281100Z 2812/2824 VRB03KT CAVOK

Example: see airport list